sensor_id;sensor_type;location;lat;lon;timestamp;temperature;humidity
54168;DHT22;68429;50.958;3.592;2023-07-13T00:00:13;15.50;99.90
54168;DHT22;68429;50.958;3.592;2023-07-13T00:02:42;15.50;99.90
54168;DHT22;68429;50.958;3.592;2023-07-13T00:05:08;15.60;99.90
54168;DHT22;68429;50.958;3.592;2023-07-13T00:07:35;15.50;99.90
54168;DHT22;68429;50.958;3.592;2023-07-13T00:10:01;15.70;99.90
54168;DHT22;68429;50.958;3.592;2023-07-13T00:12:30;15.60;99.90
54168;DHT22;68429;50.958;3.592;2023-07-13T00:15:00;15.60;99.90
54168;DHT22;68429;50.958;3.592;2023-07-13T00:17:27;15.70;99.90
54168;DHT22;68429;50.958;3.592;2023-07-13T00:19:54;15.60;99.90
54168;DHT22;68429;50.958;3.592;2023-07-13T00:22:21;15.60;99.90
54168;DHT22;68429;50.958;3.592;2023-07-13T00:24:47;15.50;99.90
54168;DHT22;68429;50.958;3.592;2023-07-13T00:27:13;15.50;99.90
54168;DHT22;68429;50.958;3.592;2023-07-13T00:29:39;15.40;99.90
54168;DHT22;68429;50.958;3.592;2023-07-13T00:32:05;15.40;99.90
54168;DHT22;68429;50.958;3.592;2023-07-13T00:34:31;15.30;99.90
54168;DHT22;68429;50.958;3.592;2023-07-13T00:36:57;15.40;99.90
54168;DHT22;68429;50.958;3.592;2023-07-13T00:39:23;15.40;99.90
54168;DHT22;68429;50.958;3.592;2023-07-13T00:41:49;15.30;99.90
54168;DHT22;68429;50.958;3.592;2023-07-13T00:44:17;15.30;99.90
54168;DHT22;68429;50.958;3.592;2023-07-13T00:46:42;15.40;99.90
54168;DHT22;68429;50.958;3.592;2023-07-13T00:49:12;15.40;99.90
54168;DHT22;68429;50.958;3.592;2023-07-13T00:52:05;15.40;99.90
54168;DHT22;68429;50.958;3.592;2023-07-13T00:54:38;15.40;99.90
54168;DHT22;68429;50.958;3.592;2023-07-13T00:57:07;15.30;99.90
54168;DHT22;68429;50.958;3.592;2023-07-13T00:59:35;15.30;99.90
54168;DHT22;68429;50.958;3.592;2023-07-13T01:02:03;15.30;99.90
54168;DHT22;68429;50.958;3.592;2023-07-13T01:04:29;15.30;99.90
54168;DHT22;68429;50.958;3.592;2023-07-13T01:06:55;15.30;99.90
54168;DHT22;68429;50.958;3.592;2023-07-13T01:09:21;15.20;99.90
54168;DHT22;68429;50.958;3.592;2023-07-13T01:11:47;15.20;99.90
54168;DHT22;68429;50.958;3.592;2023-07-13T01:14:13;15.20;99.90
54168;DHT22;68429;50.958;3.592;2023-07-13T01:16:40;15.10;99.90
54168;DHT22;68429;50.958;3.592;2023-07-13T01:21:55;15.10;99.90
54168;DHT22;68429;50.958;3.592;2023-07-13T01:24:21;15.10;99.90
54168;DHT22;68429;50.958;3.592;2023-07-13T01:26:46;15.10;99.90
54168;DHT22;68429;50.958;3.592;2023-07-13T01:29:12;15.10;99.90
54168;DHT22;68429;50.958;3.592;2023-07-13T01:31:38;15.10;99.90
54168;DHT22;68429;50.958;3.592;2023-07-13T01:34:03;15.00;99.90
54168;DHT22;68429;50.958;3.592;2023-07-13T01:36:30;15.00;99.90
54168;DHT22;68429;50.958;3.592;2023-07-13T01:38:56;15.00;99.90
54168;DHT22;68429;50.958;3.592;2023-07-13T01:41:21;15.00;99.90
54168;DHT22;68429;50.958;3.592;2023-07-13T01:43:47;15.00;99.90
54168;DHT22;68429;50.958;3.592;2023-07-13T01:46:13;15.00;99.90
54168;DHT22;68429;50.958;3.592;2023-07-13T01:48:39;15.10;99.90
54168;DHT22;68429;50.958;3.592;2023-07-13T01:51:04;15.00;99.90
54168;DHT22;68429;50.958;3.592;2023-07-13T01:53:30;15.10;99.90
54168;DHT22;68429;50.958;3.592;2023-07-13T01:55:56;15.00;99.90
54168;DHT22;68429;50.958;3.592;2023-07-13T01:58:22;15.00;99.90
54168;DHT22;68429;50.958;3.592;2023-07-13T02:00:49;14.90;99.90
54168;DHT22;68429;50.958;3.592;2023-07-13T02:03:15;14.90;99.90
54168;DHT22;68429;50.958;3.592;2023-07-13T02:05:44;15.00;99.90
54168;DHT22;68429;50.958;3.592;2023-07-13T02:08:10;15.00;99.90
54168;DHT22;68429;50.958;3.592;2023-07-13T02:10:37;14.90;99.90
54168;DHT22;68429;50.958;3.592;2023-07-13T02:13:05;14.90;99.90
54168;DHT22;68429;50.958;3.592;2023-07-13T02:15:31;14.90;99.90
54168;DHT22;68429;50.958;3.592;2023-07-13T02:17:56;14.90;99.90
54168;DHT22;68429;50.958;3.592;2023-07-13T02:20:24;14.90;99.90
54168;DHT22;68429;50.958;3.592;2023-07-13T02:22:49;14.80;99.90
54168;DHT22;68429;50.958;3.592;2023-07-13T02:25:15;14.80;99.90
54168;DHT22;68429;50.958;3.592;2023-07-13T02:27:41;14.80;99.90
54168;DHT22;68429;50.958;3.592;2023-07-13T02:30:07;14.90;99.90
54168;DHT22;68429;50.958;3.592;2023-07-13T02:32:33;14.90;99.90
54168;DHT22;68429;50.958;3.592;2023-07-13T02:34:59;14.80;99.90
54168;DHT22;68429;50.958;3.592;2023-07-13T02:37:25;14.70;99.90
54168;DHT22;68429;50.958;3.592;2023-07-13T02:39:50;14.70;99.90
54168;DHT22;68429;50.958;3.592;2023-07-13T02:42:16;14.70;99.90
54168;DHT22;68429;50.958;3.592;2023-07-13T02:44:42;14.70;99.90
54168;DHT22;68429;50.958;3.592;2023-07-13T02:47:08;14.70;99.90
54168;DHT22;68429;50.958;3.592;2023-07-13T02:49:33;14.60;99.90
54168;DHT22;68429;50.958;3.592;2023-07-13T02:51:59;14.50;99.90
54168;DHT22;68429;50.958;3.592;2023-07-13T02:54:25;14.50;99.90
54168;DHT22;68429;50.958;3.592;2023-07-13T02:56:50;14.40;99.90
54168;DHT22;68429;50.958;3.592;2023-07-13T02:59:16;14.40;99.90
54168;DHT22;68429;50.958;3.592;2023-07-13T03:01:42;14.30;99.90
54168;DHT22;68429;50.958;3.592;2023-07-13T03:04:07;14.30;99.90
54168;DHT22;68429;50.958;3.592;2023-07-13T03:06:33;14.30;99.90
54168;DHT22;68429;50.958;3.592;2023-07-13T03:08:59;14.20;99.90
54168;DHT22;68429;50.958;3.592;2023-07-13T03:11:26;14.20;99.90
54168;DHT22;68429;50.958;3.592;2023-07-13T03:13:52;14.20;99.90
54168;DHT22;68429;50.958;3.592;2023-07-13T03:16:18;14.20;99.90
54168;DHT22;68429;50.958;3.592;2023-07-13T03:18:43;14.20;99.90
54168;DHT22;68429;50.958;3.592;2023-07-13T03:21:10;14.10;99.90
54168;DHT22;68429;50.958;3.592;2023-07-13T03:23:35;14.20;99.90
54168;DHT22;68429;50.958;3.592;2023-07-13T03:26:19;14.20;99.90
54168;DHT22;68429;50.958;3.592;2023-07-13T03:28:45;14.30;99.90
54168;DHT22;68429;50.958;3.592;2023-07-13T03:31:20;14.20;99.90
54168;DHT22;68429;50.958;3.592;2023-07-13T03:33:47;14.20;99.90
54168;DHT22;68429;50.958;3.592;2023-07-13T03:36:19;14.30;99.90
54168;DHT22;68429;50.958;3.592;2023-07-13T03:38:49;14.30;99.90
54168;DHT22;68429;50.958;3.592;2023-07-13T03:41:16;14.40;99.90
54168;DHT22;68429;50.958;3.592;2023-07-13T03:43:42;14.40;99.90
54168;DHT22;68429;50.958;3.592;2023-07-13T03:46:09;14.40;99.90
54168;DHT22;68429;50.958;3.592;2023-07-13T03:48:35;14.40;99.90
54168;DHT22;68429;50.958;3.592;2023-07-13T03:51:01;14.40;99.90
54168;DHT22;68429;50.958;3.592;2023-07-13T03:53:26;14.40;99.90
54168;DHT22;68429;50.958;3.592;2023-07-13T03:55:52;14.50;99.90
54168;DHT22;68429;50.958;3.592;2023-07-13T04:00:55;14.50;99.90
54168;DHT22;68429;50.958;3.592;2023-07-13T04:03:21;14.50;99.90
54168;DHT22;68429;50.958;3.592;2023-07-13T04:05:46;14.50;99.90
54168;DHT22;68429;50.958;3.592;2023-07-13T04:08:13;14.50;99.90
54168;DHT22;68429;50.958;3.592;2023-07-13T04:10:38;14.50;99.90
54168;DHT22;68429;50.958;3.592;2023-07-13T04:13:04;14.60;99.90
54168;DHT22;68429;50.958;3.592;2023-07-13T04:15:31;14.60;99.90
54168;DHT22;68429;50.958;3.592;2023-07-13T04:17:57;14.70;99.90
54168;DHT22;68429;50.958;3.592;2023-07-13T04:20:24;14.80;99.90
54168;DHT22;68429;50.958;3.592;2023-07-13T04:22:49;14.90;99.90
54168;DHT22;68429;50.958;3.592;2023-07-13T04:25:15;15.00;99.90
54168;DHT22;68429;50.958;3.592;2023-07-13T04:27:41;14.90;99.90
54168;DHT22;68429;50.958;3.592;2023-07-13T04:30:07;14.90;99.90
54168;DHT22;68429;50.958;3.592;2023-07-13T04:32:33;15.00;99.90
54168;DHT22;68429;50.958;3.592;2023-07-13T04:34:59;15.10;99.90
54168;DHT22;68429;50.958;3.592;2023-07-13T04:37:26;15.00;99.90
54168;DHT22;68429;50.958;3.592;2023-07-13T04:39:52;15.10;99.90
54168;DHT22;68429;50.958;3.592;2023-07-13T04:42:17;15.10;99.90
54168;DHT22;68429;50.958;3.592;2023-07-13T04:44:48;15.20;99.90
54168;DHT22;68429;50.958;3.592;2023-07-13T04:47:14;15.20;99.90
54168;DHT22;68429;50.958;3.592;2023-07-13T04:49:40;15.20;99.90
54168;DHT22;68429;50.958;3.592;2023-07-13T04:52:07;15.30;99.90
54168;DHT22;68429;50.958;3.592;2023-07-13T04:54:33;15.30;99.90
54168;DHT22;68429;50.958;3.592;2023-07-13T04:56:59;15.30;99.90
54168;DHT22;68429;50.958;3.592;2023-07-13T04:59:25;15.40;99.90
54168;DHT22;68429;50.958;3.592;2023-07-13T05:01:51;15.40;99.90
54168;DHT22;68429;50.958;3.592;2023-07-13T05:04:17;15.40;99.90
54168;DHT22;68429;50.958;3.592;2023-07-13T05:06:42;15.40;99.90
54168;DHT22;68429;50.958;3.592;2023-07-13T05:09:08;15.50;99.90
54168;DHT22;68429;50.958;3.592;2023-07-13T05:11:34;15.50;99.90
54168;DHT22;68429;50.958;3.592;2023-07-13T05:14:00;15.50;99.90
54168;DHT22;68429;50.958;3.592;2023-07-13T05:16:27;15.60;99.90
54168;DHT22;68429;50.958;3.592;2023-07-13T05:18:53;15.60;99.90
54168;DHT22;68429;50.958;3.592;2023-07-13T05:21:19;15.70;99.90
54168;DHT22;68429;50.958;3.592;2023-07-13T05:23:44;15.80;99.90
54168;DHT22;68429;50.958;3.592;2023-07-13T05:26:11;15.80;99.90
54168;DHT22;68429;50.958;3.592;2023-07-13T05:28:37;15.80;99.90
54168;DHT22;68429;50.958;3.592;2023-07-13T05:31:02;15.70;99.90
54168;DHT22;68429;50.958;3.592;2023-07-13T05:33:28;15.80;99.90
54168;DHT22;68429;50.958;3.592;2023-07-13T05:35:54;15.90;99.90
54168;DHT22;68429;50.958;3.592;2023-07-13T05:38:20;15.90;99.90
54168;DHT22;68429;50.958;3.592;2023-07-13T05:40:46;16.10;99.90
54168;DHT22;68429;50.958;3.592;2023-07-13T05:43:13;16.00;99.90
54168;DHT22;68429;50.958;3.592;2023-07-13T05:45:39;16.00;99.90
54168;DHT22;68429;50.958;3.592;2023-07-13T05:48:05;16.10;99.90
54168;DHT22;68429;50.958;3.592;2023-07-13T05:50:30;16.20;99.90
54168;DHT22;68429;50.958;3.592;2023-07-13T05:52:57;16.20;99.90
54168;DHT22;68429;50.958;3.592;2023-07-13T05:55:22;16.30;99.90
54168;DHT22;68429;50.958;3.592;2023-07-13T05:57:48;16.40;99.90
54168;DHT22;68429;50.958;3.592;2023-07-13T06:00:15;16.50;99.90
54168;DHT22;68429;50.958;3.592;2023-07-13T06:02:41;16.60;99.90
54168;DHT22;68429;50.958;3.592;2023-07-13T06:05:07;16.60;99.90
54168;DHT22;68429;50.958;3.592;2023-07-13T06:07:32;16.50;99.90
54168;DHT22;68429;50.958;3.592;2023-07-13T06:09:58;16.60;99.90
54168;DHT22;68429;50.958;3.592;2023-07-13T06:12:25;16.80;99.90
54168;DHT22;68429;50.958;3.592;2023-07-13T06:14:50;16.90;99.90
54168;DHT22;68429;50.958;3.592;2023-07-13T06:17:16;16.80;99.90
54168;DHT22;68429;50.958;3.592;2023-07-13T06:19:42;16.80;99.90
54168;DHT22;68429;50.958;3.592;2023-07-13T06:22:08;16.80;99.90
54168;DHT22;68429;50.958;3.592;2023-07-13T06:24:33;16.80;99.90
54168;DHT22;68429;50.958;3.592;2023-07-13T06:26:59;16.90;99.90
54168;DHT22;68429;50.958;3.592;2023-07-13T06:29:25;17.00;99.90
54168;DHT22;68429;50.958;3.592;2023-07-13T06:31:50;17.20;99.90
54168;DHT22;68429;50.958;3.592;2023-07-13T06:34:16;17.20;99.90
54168;DHT22;68429;50.958;3.592;2023-07-13T06:36:41;17.30;99.90
54168;DHT22;68429;50.958;3.592;2023-07-13T06:39:07;17.30;99.90
54168;DHT22;68429;50.958;3.592;2023-07-13T06:41:33;17.50;99.90
54168;DHT22;68429;50.958;3.592;2023-07-13T06:43:59;17.90;99.90
54168;DHT22;68429;50.958;3.592;2023-07-13T06:46:25;18.20;99.90
54168;DHT22;68429;50.958;3.592;2023-07-13T06:48:51;18.40;99.90
54168;DHT22;68429;50.958;3.592;2023-07-13T06:51:17;18.30;99.90
54168;DHT22;68429;50.958;3.592;2023-07-13T06:53:42;18.30;99.90
54168;DHT22;68429;50.958;3.592;2023-07-13T06:56:10;18.20;99.90
54168;DHT22;68429;50.958;3.592;2023-07-13T06:58:36;18.40;99.90
54168;DHT22;68429;50.958;3.592;2023-07-13T07:01:03;18.40;99.90
54168;DHT22;68429;50.958;3.592;2023-07-13T07:03:29;18.40;99.90
54168;DHT22;68429;50.958;3.592;2023-07-13T07:06:07;18.30;99.90
54168;DHT22;68429;50.958;3.592;2023-07-13T07:08:34;18.20;99.90
54168;DHT22;68429;50.958;3.592;2023-07-13T07:10:59;18.20;99.90
54168;DHT22;68429;50.958;3.592;2023-07-13T07:13:25;18.30;99.90
54168;DHT22;68429;50.958;3.592;2023-07-13T07:15:51;18.30;99.90
54168;DHT22;68429;50.958;3.592;2023-07-13T07:18:17;18.60;99.90
54168;DHT22;68429;50.958;3.592;2023-07-13T07:20:43;18.60;99.90
54168;DHT22;68429;50.958;3.592;2023-07-13T07:23:08;18.80;99.90
54168;DHT22;68429;50.958;3.592;2023-07-13T07:25:34;18.90;99.90
54168;DHT22;68429;50.958;3.592;2023-07-13T07:28:02;19.10;99.90
54168;DHT22;68429;50.958;3.592;2023-07-13T07:30:28;19.10;99.90
54168;DHT22;68429;50.958;3.592;2023-07-13T07:32:54;19.20;99.90
54168;DHT22;68429;50.958;3.592;2023-07-13T07:35:19;18.90;99.90
54168;DHT22;68429;50.958;3.592;2023-07-13T07:37:45;18.90;99.90
54168;DHT22;68429;50.958;3.592;2023-07-13T07:40:11;18.80;99.90
54168;DHT22;68429;50.958;3.592;2023-07-13T07:42:36;19.00;99.90
54168;DHT22;68429;50.958;3.592;2023-07-13T07:45:02;18.90;99.90
54168;DHT22;68429;50.958;3.592;2023-07-13T07:47:28;19.00;99.90
54168;DHT22;68429;50.958;3.592;2023-07-13T07:49:53;19.30;99.90
54168;DHT22;68429;50.958;3.592;2023-07-13T07:52:19;19.40;99.90
54168;DHT22;68429;50.958;3.592;2023-07-13T07:54:45;19.60;99.90
54168;DHT22;68429;50.958;3.592;2023-07-13T07:57:10;19.70;99.90
54168;DHT22;68429;50.958;3.592;2023-07-13T07:59:36;19.60;99.90
54168;DHT22;68429;50.958;3.592;2023-07-13T08:02:02;19.30;99.90
54168;DHT22;68429;50.958;3.592;2023-07-13T08:04:28;19.40;99.90
54168;DHT22;68429;50.958;3.592;2023-07-13T08:06:54;19.60;99.90
54168;DHT22;68429;50.958;3.592;2023-07-13T08:09:22;20.10;99.90
54168;DHT22;68429;50.958;3.592;2023-07-13T08:11:47;19.80;99.90
54168;DHT22;68429;50.958;3.592;2023-07-13T08:14:13;19.80;99.90
54168;DHT22;68429;50.958;3.592;2023-07-13T08:16:39;19.90;99.90
54168;DHT22;68429;50.958;3.592;2023-07-13T08:19:05;19.90;99.90
54168;DHT22;68429;50.958;3.592;2023-07-13T08:21:32;20.00;99.90
54168;DHT22;68429;50.958;3.592;2023-07-13T08:23:57;20.20;99.90
54168;DHT22;68429;50.958;3.592;2023-07-13T08:26:23;20.10;99.90
54168;DHT22;68429;50.958;3.592;2023-07-13T08:28:49;20.10;99.90
54168;DHT22;68429;50.958;3.592;2023-07-13T08:31:14;20.50;99.90
54168;DHT22;68429;50.958;3.592;2023-07-13T08:33:40;20.60;99.90
54168;DHT22;68429;50.958;3.592;2023-07-13T08:36:06;20.70;99.90
54168;DHT22;68429;50.958;3.592;2023-07-13T08:38:33;21.00;99.90
54168;DHT22;68429;50.958;3.592;2023-07-13T08:40:58;21.00;99.90
54168;DHT22;68429;50.958;3.592;2023-07-13T08:43:34;21.10;99.90
54168;DHT22;68429;50.958;3.592;2023-07-13T08:48:34;20.50;99.90
54168;DHT22;68429;50.958;3.592;2023-07-13T08:51:23;20.60;99.90
54168;DHT22;68429;50.958;3.592;2023-07-13T08:53:54;20.50;99.90
54168;DHT22;68429;50.958;3.592;2023-07-13T08:56:29;20.40;99.90
54168;DHT22;68429;50.958;3.592;2023-07-13T08:59:02;20.60;99.90
54168;DHT22;68429;50.958;3.592;2023-07-13T09:04:37;20.90;99.90
54168;DHT22;68429;50.958;3.592;2023-07-13T09:10:27;21.10;99.90
54168;DHT22;68429;50.958;3.592;2023-07-13T09:15:41;21.00;99.90
54168;DHT22;68429;50.958;3.592;2023-07-13T09:19:02;21.00;99.90
54168;DHT22;68429;50.958;3.592;2023-07-13T09:21:26;21.30;99.90
54168;DHT22;68429;50.958;3.592;2023-07-13T09:23:59;21.80;99.90
54168;DHT22;68429;50.958;3.592;2023-07-13T09:26:28;21.90;99.90
54168;DHT22;68429;50.958;3.592;2023-07-13T09:29:04;22.30;99.90
54168;DHT22;68429;50.958;3.592;2023-07-13T09:31:49;22.10;99.90
54168;DHT22;68429;50.958;3.592;2023-07-13T09:34:17;22.00;99.90
54168;DHT22;68429;50.958;3.592;2023-07-13T09:36:43;21.80;99.90
54168;DHT22;68429;50.958;3.592;2023-07-13T09:39:37;21.50;99.90
54168;DHT22;68429;50.958;3.592;2023-07-13T09:42:17;21.90;99.90
54168;DHT22;68429;50.958;3.592;2023-07-13T09:44:58;21.80;99.90
54168;DHT22;68429;50.958;3.592;2023-07-13T09:47:33;21.90;99.90
54168;DHT22;68429;50.958;3.592;2023-07-13T09:50:09;22.10;99.90
54168;DHT22;68429;50.958;3.592;2023-07-13T09:52:44;22.10;99.90
54168;DHT22;68429;50.958;3.592;2023-07-13T09:55:30;22.20;99.90
54168;DHT22;68429;50.958;3.592;2023-07-13T09:57:57;22.60;99.90
54168;DHT22;68429;50.958;3.592;2023-07-13T10:00:30;22.30;99.90
54168;DHT22;68429;50.958;3.592;2023-07-13T10:06:14;23.50;99.00
54168;DHT22;68429;50.958;3.592;2023-07-13T10:08:40;23.40;98.70
54168;DHT22;68429;50.958;3.592;2023-07-13T10:11:23;23.40;98.50
54168;DHT22;68429;50.958;3.592;2023-07-13T10:16:25;23.70;97.80
54168;DHT22;68429;50.958;3.592;2023-07-13T10:18:58;23.30;99.00
54168;DHT22;68429;50.958;3.592;2023-07-13T10:21:32;23.30;98.10
54168;DHT22;68429;50.958;3.592;2023-07-13T10:24:24;23.10;98.60
54168;DHT22;68429;50.958;3.592;2023-07-13T10:29:34;23.00;98.10
54168;DHT22;68429;50.958;3.592;2023-07-13T10:32:01;22.60;98.50
54168;DHT22;68429;50.958;3.592;2023-07-13T10:34:27;23.10;98.70
54168;DHT22;68429;50.958;3.592;2023-07-13T10:36:53;23.50;97.60
54168;DHT22;68429;50.958;3.592;2023-07-13T10:39:26;23.40;97.90
54168;DHT22;68429;50.958;3.592;2023-07-13T10:42:00;23.20;96.90
54168;DHT22;68429;50.958;3.592;2023-07-13T10:44:30;22.60;97.70
54168;DHT22;68429;50.958;3.592;2023-07-13T10:47:00;22.20;99.40
54168;DHT22;68429;50.958;3.592;2023-07-13T10:49:28;22.10;99.90
54168;DHT22;68429;50.958;3.592;2023-07-13T10:51:54;21.40;99.90
54168;DHT22;68429;50.958;3.592;2023-07-13T10:54:33;20.40;99.90
54168;DHT22;68429;50.958;3.592;2023-07-13T10:57:19;19.50;99.90
54168;DHT22;68429;50.958;3.592;2023-07-13T11:02:38;17.90;99.90
54168;DHT22;68429;50.958;3.592;2023-07-13T11:05:29;17.60;99.90
54168;DHT22;68429;50.958;3.592;2023-07-13T11:08:03;17.40;99.90
54168;DHT22;68429;50.958;3.592;2023-07-13T11:13:38;17.80;99.90
54168;DHT22;68429;50.958;3.592;2023-07-13T11:18:52;18.20;99.90
54168;DHT22;68429;50.958;3.592;2023-07-13T11:21:20;18.50;99.90
54168;DHT22;68429;50.958;3.592;2023-07-13T11:26:42;19.00;99.90
54168;DHT22;68429;50.958;3.592;2023-07-13T11:31:58;19.60;99.90
54168;DHT22;68429;50.958;3.592;2023-07-13T11:34:31;20.30;99.90
54168;DHT22;68429;50.958;3.592;2023-07-13T11:37:00;21.30;99.90
54168;DHT22;68429;50.958;3.592;2023-07-13T11:39:30;22.50;99.90
54168;DHT22;68429;50.958;3.592;2023-07-13T11:42:13;23.10;99.90
54168;DHT22;68429;50.958;3.592;2023-07-13T11:44:48;23.30;99.90
54168;DHT22;68429;50.958;3.592;2023-07-13T11:47:18;23.30;99.90
54168;DHT22;68429;50.958;3.592;2023-07-13T11:49:53;22.80;99.90
54168;DHT22;68429;50.958;3.592;2023-07-13T11:52:32;22.50;99.90
54168;DHT22;68429;50.958;3.592;2023-07-13T11:55:00;23.40;99.90
54168;DHT22;68429;50.958;3.592;2023-07-13T11:57:37;24.60;99.90
54168;DHT22;68429;50.958;3.592;2023-07-13T12:00:13;24.40;99.90
54168;DHT22;68429;50.958;3.592;2023-07-13T12:02:47;25.10;99.90
54168;DHT22;68429;50.958;3.592;2023-07-13T12:05:16;25.00;99.90
54168;DHT22;68429;50.958;3.592;2023-07-13T12:07:43;24.80;99.90
54168;DHT22;68429;50.958;3.592;2023-07-13T12:10:26;24.30;99.90
54168;DHT22;68429;50.958;3.592;2023-07-13T12:15:27;22.20;99.90
54168;DHT22;68429;50.958;3.592;2023-07-13T12:17:54;21.60;99.90
54168;DHT22;68429;50.958;3.592;2023-07-13T12:20:36;21.60;99.90
54168;DHT22;68429;50.958;3.592;2023-07-13T12:23:05;21.60;99.90
54168;DHT22;68429;50.958;3.592;2023-07-13T12:25:31;21.70;99.90
54168;DHT22;68429;50.958;3.592;2023-07-13T12:27:57;22.30;99.90
54168;DHT22;68429;50.958;3.592;2023-07-13T12:30:29;23.40;99.90
54168;DHT22;68429;50.958;3.592;2023-07-13T12:33:07;23.20;99.90
54168;DHT22;68429;50.958;3.592;2023-07-13T12:35:47;24.60;99.90
54168;DHT22;68429;50.958;3.592;2023-07-13T12:38:15;26.10;99.80
54168;DHT22;68429;50.958;3.592;2023-07-13T12:40:41;26.70;97.60
54168;DHT22;68429;50.958;3.592;2023-07-13T12:43:13;26.50;98.20
54168;DHT22;68429;50.958;3.592;2023-07-13T12:46:04;26.00;98.20
54168;DHT22;68429;50.958;3.592;2023-07-13T12:48:38;25.50;97.40
54168;DHT22;68429;50.958;3.592;2023-07-13T12:51:10;26.20;97.90
54168;DHT22;68429;50.958;3.592;2023-07-13T12:53:42;27.10;97.00
54168;DHT22;68429;50.958;3.592;2023-07-13T12:56:18;27.70;94.50
54168;DHT22;68429;50.958;3.592;2023-07-13T12:58:44;27.20;93.60
54168;DHT22;68429;50.958;3.592;2023-07-13T13:01:13;26.30;94.70
54168;DHT22;68429;50.958;3.592;2023-07-13T13:03:45;25.80;95.20
54168;DHT22;68429;50.958;3.592;2023-07-13T13:08:49;24.90;94.50
54168;DHT22;68429;50.958;3.592;2023-07-13T13:11:16;24.90;95.80
54168;DHT22;68429;50.958;3.592;2023-07-13T13:13:42;25.30;94.60
54168;DHT22;68429;50.958;3.592;2023-07-13T13:16:17;25.80;94.10
54168;DHT22;68429;50.958;3.592;2023-07-13T13:18:44;26.30;93.00
54168;DHT22;68429;50.958;3.592;2023-07-13T13:21:11;25.90;92.70
54168;DHT22;68429;50.958;3.592;2023-07-13T13:23:37;25.10;93.40
54168;DHT22;68429;50.958;3.592;2023-07-13T13:26:04;24.50;94.20
54168;DHT22;68429;50.958;3.592;2023-07-13T13:28:31;24.40;94.80
54168;DHT22;68429;50.958;3.592;2023-07-13T13:30:57;24.60;95.10
54168;DHT22;68429;50.958;3.592;2023-07-13T13:33:23;25.50;93.80
54168;DHT22;68429;50.958;3.592;2023-07-13T13:35:49;26.10;91.60
54168;DHT22;68429;50.958;3.592;2023-07-13T13:38:17;26.60;92.00
54168;DHT22;68429;50.958;3.592;2023-07-13T13:40:45;27.10;92.00
54168;DHT22;68429;50.958;3.592;2023-07-13T13:43:21;27.40;91.70
54168;DHT22;68429;50.958;3.592;2023-07-13T13:45:47;27.90;90.40
54168;DHT22;68429;50.958;3.592;2023-07-13T13:48:18;27.90;90.10
54168;DHT22;68429;50.958;3.592;2023-07-13T13:50:45;28.20;90.80
54168;DHT22;68429;50.958;3.592;2023-07-13T13:53:12;28.00;90.40
54168;DHT22;68429;50.958;3.592;2023-07-13T13:55:41;27.90;90.40
54168;DHT22;68429;50.958;3.592;2023-07-13T13:58:10;26.90;90.50
54168;DHT22;68429;50.958;3.592;2023-07-13T14:00:37;26.60;91.70
54168;DHT22;68429;50.958;3.592;2023-07-13T14:03:04;27.00;91.00
54168;DHT22;68429;50.958;3.592;2023-07-13T14:05:29;27.20;90.80
54168;DHT22;68429;50.958;3.592;2023-07-13T14:07:56;28.00;88.90
54168;DHT22;68429;50.958;3.592;2023-07-13T14:10:25;27.70;89.60
54168;DHT22;68429;50.958;3.592;2023-07-13T14:12:54;27.90;87.20
54168;DHT22;68429;50.958;3.592;2023-07-13T14:15:24;28.60;88.70
54168;DHT22;68429;50.958;3.592;2023-07-13T14:17:50;30.10;89.10
54168;DHT22;68429;50.958;3.592;2023-07-13T14:20:17;30.30;84.70
54168;DHT22;68429;50.958;3.592;2023-07-13T14:22:43;29.80;87.00
54168;DHT22;68429;50.958;3.592;2023-07-13T14:25:14;29.50;85.00
54168;DHT22;68429;50.958;3.592;2023-07-13T14:27:41;29.50;87.00
54168;DHT22;68429;50.958;3.592;2023-07-13T14:30:20;29.20;87.60
54168;DHT22;68429;50.958;3.592;2023-07-13T14:32:46;29.70;84.80
54168;DHT22;68429;50.958;3.592;2023-07-13T14:35:13;29.50;86.20
54168;DHT22;68429;50.958;3.592;2023-07-13T14:37:39;28.50;84.10
54168;DHT22;68429;50.958;3.592;2023-07-13T14:40:21;28.30;87.50
54168;DHT22;68429;50.958;3.592;2023-07-13T14:42:47;28.50;86.70
54168;DHT22;68429;50.958;3.592;2023-07-13T14:45:18;28.10;85.30
54168;DHT22;68429;50.958;3.592;2023-07-13T14:47:44;27.70;86.40
54168;DHT22;68429;50.958;3.592;2023-07-13T14:50:20;27.20;88.00
54168;DHT22;68429;50.958;3.592;2023-07-13T14:52:47;26.30;88.20
54168;DHT22;68429;50.958;3.592;2023-07-13T14:55:15;25.70;89.90
54168;DHT22;68429;50.958;3.592;2023-07-13T14:57:42;25.40;90.70
54168;DHT22;68429;50.958;3.592;2023-07-13T15:00:21;25.20;91.40
54168;DHT22;68429;50.958;3.592;2023-07-13T15:02:52;24.80;91.10
54168;DHT22;68429;50.958;3.592;2023-07-13T15:05:20;24.90;91.00
54168;DHT22;68429;50.958;3.592;2023-07-13T15:07:49;25.40;90.10
54168;DHT22;68429;50.958;3.592;2023-07-13T15:10:24;26.00;90.00
54168;DHT22;68429;50.958;3.592;2023-07-13T15:13:13;26.60;89.50
54168;DHT22;68429;50.958;3.592;2023-07-13T15:15:40;27.20;88.70
54168;DHT22;68429;50.958;3.592;2023-07-13T15:18:09;27.80;87.40
54168;DHT22;68429;50.958;3.592;2023-07-13T15:20:36;27.20;87.80
54168;DHT22;68429;50.958;3.592;2023-07-13T15:23:02;27.50;88.50
54168;DHT22;68429;50.958;3.592;2023-07-13T15:25:30;27.90;86.30
54168;DHT22;68429;50.958;3.592;2023-07-13T15:27:57;28.50;85.90
54168;DHT22;68429;50.958;3.592;2023-07-13T15:30:26;28.80;82.80
54168;DHT22;68429;50.958;3.592;2023-07-13T15:32:52;28.20;85.20
54168;DHT22;68429;50.958;3.592;2023-07-13T15:35:21;27.10;84.10
54168;DHT22;68429;50.958;3.592;2023-07-13T15:37:48;26.10;84.90
54168;DHT22;68429;50.958;3.592;2023-07-13T15:40:14;25.60;87.60
54168;DHT22;68429;50.958;3.592;2023-07-13T15:42:44;25.60;86.20
54168;DHT22;68429;50.958;3.592;2023-07-13T15:45:24;25.90;88.80
54168;DHT22;68429;50.958;3.592;2023-07-13T15:47:53;26.50;88.20
54168;DHT22;68429;50.958;3.592;2023-07-13T15:50:22;26.70;87.80
54168;DHT22;68429;50.958;3.592;2023-07-13T15:52:50;27.10;85.60
54168;DHT22;68429;50.958;3.592;2023-07-13T15:55:17;26.60;87.30
54168;DHT22;68429;50.958;3.592;2023-07-13T15:57:50;26.40;86.00
54168;DHT22;68429;50.958;3.592;2023-07-13T16:00:21;26.10;88.20
54168;DHT22;68429;50.958;3.592;2023-07-13T16:02:48;26.10;85.90
54168;DHT22;68429;50.958;3.592;2023-07-13T16:05:14;25.70;86.10
54168;DHT22;68429;50.958;3.592;2023-07-13T16:07:43;26.00;85.10
54168;DHT22;68429;50.958;3.592;2023-07-13T16:10:16;26.50;87.10
54168;DHT22;68429;50.958;3.592;2023-07-13T16:12:42;27.10;86.10
54168;DHT22;68429;50.958;3.592;2023-07-13T16:15:14;27.30;84.80
54168;DHT22;68429;50.958;3.592;2023-07-13T16:17:40;27.00;86.40
54168;DHT22;68429;50.958;3.592;2023-07-13T16:20:08;27.00;85.40
54168;DHT22;68429;50.958;3.592;2023-07-13T16:22:43;26.40;86.50